createdAt,value
2018-07-31T00:00:59.445Z,26.00
2018-07-31T00:03:27.953Z,26.00
2018-07-31T00:05:56.289Z,26.00
2018-07-31T00:08:24.901Z,25.90
2018-07-31T00:10:53.294Z,26.00
2018-07-31T00:13:21.690Z,25.90
2018-07-31T00:15:50.359Z,25.90
2018-07-31T00:18:18.741Z,25.90
2018-07-31T00:20:47.141Z,25.80
2018-07-31T00:23:15.750Z,25.80
2018-07-31T00:25:44.409Z,25.70
2018-07-31T00:28:12.771Z,25.70
2018-07-31T00:30:41.433Z,25.70
2018-07-31T00:33:09.849Z,25.70
2018-07-31T00:35:38.324Z,25.70
2018-07-31T00:38:07.020Z,25.70
2018-07-31T00:40:35.453Z,25.60
2018-07-31T00:43:03.867Z,25.60
2018-07-31T00:45:32.607Z,25.60
2018-07-31T00:48:01.065Z,25.60
2018-07-31T00:50:29.465Z,25.50
2018-07-31T00:52:58.069Z,25.60
2018-07-31T00:55:26.445Z,25.50
2018-07-31T00:57:54.812Z,25.50
2018-07-31T01:02:51.614Z,25.50
2018-07-31T01:05:19.994Z,25.50
2018-07-31T01:07:48.616Z,25.50
2018-07-31T01:10:16.981Z,25.50
2018-07-31T01:12:45.388Z,25.40
2018-07-31T01:15:15.026Z,25.40
2018-07-31T01:17:43.411Z,25.40
2018-07-31T01:20:11.797Z,25.40
2018-07-31T01:22:40.495Z,25.30
2018-07-31T01:25:09.185Z,25.30
2018-07-31T01:27:37.576Z,25.20
2018-07-31T01:30:06.481Z,25.20
2018-07-31T01:32:35.141Z,25.20
2018-07-31T01:35:03.529Z,25.20
2018-07-31T01:37:32.124Z,25.20
2018-07-31T01:40:00.551Z,25.20
2018-07-31T01:42:28.979Z,25.20
2018-07-31T01:44:57.652Z,25.20
2018-07-31T01:47:26.042Z,25.10
2018-07-31T01:49:54.409Z,25.10
2018-07-31T01:52:23.025Z,25.10
2018-07-31T01:54:51.389Z,25.10
2018-07-31T01:57:19.756Z,25.00
2018-07-31T01:59:48.315Z,25.00
2018-07-31T02:02:16.757Z,24.90
2018-07-31T02:04:45.177Z,24.90
2018-07-31T02:07:13.808Z,24.90
2018-07-31T02:09:42.234Z,24.90
2018-07-31T02:12:10.656Z,24.80
2018-07-31T02:14:39.265Z,24.80
2018-07-31T02:17:07.714Z,24.80
2018-07-31T02:22:04.549Z,24.70
2018-07-31T02:24:32.961Z,24.70
2018-07-31T02:27:01.345Z,24.70
2018-07-31T02:29:35.441Z,24.70
2018-07-31T02:32:03.841Z,24.70
2018-07-31T02:34:32.313Z,24.70
2018-07-31T02:37:00.878Z,24.70
2018-07-31T02:41:57.464Z,24.70
2018-07-31T02:44:26.044Z,24.70
2018-07-31T02:46:54.510Z,24.60
2018-07-31T02:49:28.462Z,24.60
2018-07-31T02:51:56.878Z,24.60
2018-07-31T02:56:53.889Z,24.60
2018-07-31T02:59:22.296Z,24.60
2018-07-31T03:01:50.710Z,24.50
2018-07-31T03:06:47.421Z,24.50
2018-07-31T03:09:15.809Z,24.50
2018-07-31T03:14:13.613Z,24.50
2018-07-31T03:16:42.009Z,24.50
2018-07-31T03:19:10.629Z,24.50
2018-07-31T03:21:38.998Z,24.50
2018-07-31T03:24:07.414Z,24.50
2018-07-31T03:26:36.054Z,24.50
2018-07-31T03:29:04.457Z,24.50
2018-07-31T03:31:32.915Z,24.40
2018-07-31T03:34:01.598Z,24.50
2018-07-31T03:36:30.023Z,24.40
2018-07-31T03:38:58.443Z,24.40
2018-07-31T03:41:27.033Z,24.40
2018-07-31T03:43:55.681Z,24.40
2018-07-31T03:46:24.171Z,24.40
2018-07-31T03:48:52.858Z,24.40
2018-07-31T03:51:21.328Z,24.40
2018-07-31T03:53:49.726Z,24.30
2018-07-31T03:56:18.365Z,24.40
2018-07-31T03:58:46.824Z,24.40
2018-07-31T04:03:44.105Z,24.40
2018-07-31T04:06:13.597Z,24.40
2018-07-31T04:08:42.019Z,24.40
2018-07-31T04:11:10.745Z,24.40
2018-07-31T04:13:39.111Z,24.40
2018-07-31T04:16:07.737Z,24.50
2018-07-31T04:18:36.436Z,24.60
2018-07-31T04:21:04.818Z,24.80
2018-07-31T04:23:33.254Z,25.20
2018-07-31T04:26:02.005Z,25.50
2018-07-31T04:28:30.429Z,25.70
2018-07-31T04:30:59.149Z,26.10
2018-07-31T04:33:27.694Z,26.30
2018-07-31T04:35:56.174Z,26.50
2018-07-31T04:38:24.609Z,26.70
2018-07-31T04:40:53.262Z,26.80
2018-07-31T04:43:21.621Z,27.00
2018-07-31T04:45:49.997Z,27.20
2018-07-31T04:48:18.622Z,27.30
2018-07-31T04:50:47.133Z,27.50
2018-07-31T04:53:15.854Z,27.60
2018-07-31T04:55:44.548Z,27.90
2018-07-31T04:58:12.956Z,28.00
2018-07-31T05:00:41.329Z,28.00
2018-07-31T05:03:10.021Z,28.50
2018-07-31T05:05:38.497Z,29.00
2018-07-31T05:08:06.894Z,29.20
2018-07-31T05:10:35.783Z,29.70
2018-07-31T05:13:04.353Z,29.80
2018-07-31T05:15:32.746Z,30.00
2018-07-31T05:18:01.391Z,30.10
2018-07-31T05:20:29.765Z,30.10
2018-07-31T05:22:58.349Z,30.00
2018-07-31T05:25:26.969Z,29.80
2018-07-31T05:27:55.386Z,29.70
2018-07-31T05:30:23.789Z,30.00
2018-07-31T05:35:20.601Z,30.20
2018-07-31T05:37:49.024Z,29.80
2018-07-31T05:40:17.721Z,29.00
2018-07-31T05:42:46.181Z,28.60
2018-07-31T05:45:14.582Z,28.80
2018-07-31T05:47:43.197Z,28.80
2018-07-31T05:50:11.571Z,29.50
2018-07-31T05:52:39.989Z,30.00
2018-07-31T05:55:08.683Z,30.60
2018-07-31T05:57:37.100Z,30.60
2018-07-31T06:00:06.497Z,30.30
2018-07-31T06:02:35.102Z,29.70
2018-07-31T06:05:03.662Z,29.00
2018-07-31T06:07:32.077Z,28.10
2018-07-31T06:10:00.661Z,27.60
2018-07-31T06:12:29.085Z,27.40
2018-07-31T06:14:57.481Z,27.40
2018-07-31T06:17:26.093Z,27.60
2018-07-31T06:22:22.671Z,27.60
2018-07-31T06:24:51.077Z,27.90
2018-07-31T06:27:19.579Z,28.40
2018-07-31T06:29:48.389Z,29.20
2018-07-31T06:32:16.781Z,30.10
2018-07-31T06:34:45.205Z,31.10
2018-07-31T06:37:13.784Z,31.40
2018-07-31T06:39:42.362Z,31.90
2018-07-31T06:42:17.737Z,32.30
2018-07-31T06:47:14.498Z,33.60
2018-07-31T06:49:42.942Z,33.90
2018-07-31T06:52:11.614Z,34.10
2018-07-31T06:54:40.005Z,34.30
2018-07-31T06:57:08.477Z,34.40
2018-07-31T06:59:37.086Z,34.10
2018-07-31T07:02:05.574Z,33.70
2018-07-31T07:04:33.962Z,33.60
2018-07-31T07:07:02.770Z,33.60
2018-07-31T07:09:31.218Z,33.30
2018-07-31T07:11:59.642Z,33.70
2018-07-31T07:14:28.386Z,33.60
2018-07-31T07:16:56.769Z,33.20
2018-07-31T07:19:25.185Z,32.70
2018-07-31T07:21:53.840Z,32.20
2018-07-31T07:24:22.275Z,31.80
2018-07-31T07:26:50.733Z,31.40
2018-07-31T07:29:19.323Z,31.00
2018-07-31T07:31:47.729Z,30.70
2018-07-31T07:34:16.825Z,30.70
2018-07-31T07:36:45.601Z,30.80
2018-07-31T07:39:14.004Z,30.80
2018-07-31T07:41:42.561Z,30.80
2018-07-31T07:44:11.817Z,31.10
2018-07-31T07:46:40.189Z,31.30
2018-07-31T07:49:08.761Z,31.60
2018-07-31T07:51:37.600Z,31.70
2018-07-31T07:54:06.075Z,31.90
2018-07-31T07:56:34.469Z,31.90
2018-07-31T07:59:03.077Z,31.90
2018-07-31T08:01:31.501Z,31.80
2018-07-31T08:03:59.885Z,31.70
2018-07-31T08:06:28.557Z,31.50
2018-07-31T08:08:56.929Z,31.60
2018-07-31T08:11:25.281Z,31.60
2018-07-31T08:13:53.937Z,31.70
2018-07-31T08:16:22.337Z,31.70
2018-07-31T08:18:50.721Z,31.60
2018-07-31T08:21:19.174Z,31.70
2018-07-31T08:23:47.550Z,31.60
2018-07-31T08:26:17.104Z,31.60
2018-07-31T08:28:45.540Z,31.70
2018-07-31T08:31:13.933Z,31.80
2018-07-31T08:33:42.602Z,31.90
2018-07-31T08:36:11.437Z,31.90
2018-07-31T08:38:39.905Z,32.00
2018-07-31T08:41:08.466Z,32.30
2018-07-31T08:43:36.965Z,32.60
2018-07-31T08:46:05.350Z,32.90
2018-07-31T08:48:33.965Z,33.20
2018-07-31T08:51:02.354Z,33.50
2018-07-31T08:53:30.730Z,33.20
2018-07-31T08:55:59.344Z,33.20
2018-07-31T08:58:27.742Z,33.30
2018-07-31T09:00:56.225Z,33.50
2018-07-31T09:03:25.029Z,33.50
2018-07-31T09:05:53.385Z,33.50
2018-07-31T09:08:21.812Z,33.40
2018-07-31T09:10:51.014Z,33.40
2018-07-31T09:13:19.441Z,33.20
2018-07-31T09:15:47.840Z,33.30
2018-07-31T09:18:17.441Z,33.30
2018-07-31T09:20:45.864Z,33.20
2018-07-31T09:25:47.306Z,33.00
2018-07-31T09:28:17.290Z,33.00
2018-07-31T09:30:51.128Z,33.00
2018-07-31T09:33:19.549Z,32.90
2018-07-31T09:35:48.009Z,32.90
2018-07-31T09:38:17.370Z,32.80
2018-07-31T09:40:45.798Z,32.80
2018-07-31T09:43:14.176Z,32.70
2018-07-31T09:45:42.830Z,32.70
2018-07-31T09:48:11.238Z,32.80
2018-07-31T09:50:39.664Z,32.80
2018-07-31T09:53:08.221Z,32.80
2018-07-31T09:55:36.600Z,32.80
2018-07-31T09:58:05.369Z,33.00
2018-07-31T10:00:39.101Z,33.10
2018-07-31T10:03:07.513Z,33.20
2018-07-31T10:05:36.306Z,33.30
2018-07-31T10:08:04.733Z,33.50
2018-07-31T10:10:33.115Z,33.50
2018-07-31T10:13:01.681Z,33.70
2018-07-31T10:15:30.145Z,33.70
2018-07-31T10:17:58.592Z,33.70
2018-07-31T10:20:27.257Z,33.70
2018-07-31T10:22:55.668Z,33.90
2018-07-31T10:25:24.038Z,33.90
2018-07-31T10:27:52.637Z,34.00
2018-07-31T10:30:21.077Z,34.10
2018-07-31T10:35:17.912Z,34.20
2018-07-31T10:37:46.386Z,34.10
2018-07-31T10:40:14.881Z,34.10
2018-07-31T10:42:43.800Z,34.30
2018-07-31T10:45:12.213Z,34.10
2018-07-31T10:47:40.692Z,34.20
2018-07-31T10:50:09.396Z,34.00
2018-07-31T10:52:37.834Z,34.00
2018-07-31T10:55:06.274Z,34.00
2018-07-31T10:57:34.965Z,33.90
2018-07-31T11:00:03.566Z,34.10
2018-07-31T11:02:32.026Z,34.10
2018-07-31T11:05:00.587Z,34.00
2018-07-31T11:07:28.978Z,33.90
2018-07-31T11:09:57.369Z,34.00
2018-07-31T11:15:02.638Z,34.00
2018-07-31T11:17:31.025Z,34.20
2018-07-31T11:19:59.597Z,34.30
2018-07-31T11:22:28.008Z,34.40
2018-07-31T11:24:56.403Z,34.30
2018-07-31T11:27:25.088Z,33.90
2018-07-31T11:29:53.522Z,33.90
2018-07-31T11:32:21.929Z,33.90
2018-07-31T11:34:50.562Z,34.00
2018-07-31T11:37:19.517Z,34.00
2018-07-31T11:42:16.216Z,34.50
2018-07-31T11:44:44.610Z,34.70
2018-07-31T11:47:13.021Z,34.90
2018-07-31T11:49:41.734Z,34.80
2018-07-31T11:52:10.189Z,34.80
2018-07-31T11:54:38.952Z,34.90
2018-07-31T11:57:07.626Z,34.70
2018-07-31T11:59:36.356Z,34.60
2018-07-31T12:02:04.906Z,34.50
2018-07-31T12:04:33.454Z,34.50
2018-07-31T12:09:29.929Z,34.30
2018-07-31T12:11:58.579Z,34.30
2018-07-31T12:14:26.978Z,34.20
2018-07-31T12:16:55.375Z,34.00
2018-07-31T12:21:54.490Z,34.00
2018-07-31T12:24:22.870Z,34.00
2018-07-31T12:26:51.322Z,34.00
2018-07-31T12:29:19.768Z,34.00
2018-07-31T12:31:48.437Z,34.10
2018-07-31T12:34:17.102Z,34.00
2018-07-31T12:36:45.611Z,34.00
2018-07-31T12:39:14.061Z,34.00
2018-07-31T12:41:42.749Z,34.20
2018-07-31T12:44:11.284Z,34.10
2018-07-31T12:46:39.650Z,34.20
2018-07-31T12:49:08.307Z,34.10
2018-07-31T12:51:36.720Z,34.10
2018-07-31T12:54:05.158Z,34.20
2018-07-31T12:56:33.564Z,34.20
2018-07-31T12:59:02.031Z,34.10
2018-07-31T13:01:30.689Z,34.30
2018-07-31T13:03:59.087Z,34.50
2018-07-31T13:06:27.487Z,34.60
2018-07-31T13:08:56.124Z,34.70
2018-07-31T13:11:24.573Z,34.70
2018-07-31T13:13:53.001Z,34.50
2018-07-31T13:18:49.776Z,34.50
2018-07-31T13:21:18.542Z,34.50
2018-07-31T13:23:47.232Z,34.70
2018-07-31T13:26:15.646Z,34.60
2018-07-31T13:28:44.034Z,34.40
2018-07-31T13:31:12.613Z,34.40
2018-07-31T13:33:41.065Z,34.40
2018-07-31T13:38:37.753Z,34.80
2018-07-31T13:41:06.467Z,34.90
2018-07-31T13:43:34.890Z,34.90
2018-07-31T13:46:03.493Z,34.80
2018-07-31T13:48:31.898Z,34.50
2018-07-31T13:51:00.266Z,34.50
2018-07-31T13:53:29.033Z,34.50
2018-07-31T13:55:57.470Z,34.50
2018-07-31T13:58:26.022Z,34.50
2018-07-31T14:00:54.628Z,34.50
2018-07-31T14:03:23.041Z,34.50
2018-07-31T14:05:51.445Z,34.60
2018-07-31T14:08:20.025Z,34.70
2018-07-31T14:13:16.799Z,34.80
2018-07-31T14:15:45.397Z,34.80
2018-07-31T14:18:13.962Z,34.90
2018-07-31T14:20:42.393Z,34.90
2018-07-31T14:23:11.077Z,35.00
2018-07-31T14:25:39.534Z,35.20
2018-07-31T14:28:07.976Z,35.40
2018-07-31T14:30:36.599Z,35.40
2018-07-31T14:33:05.005Z,35.50
2018-07-31T14:35:33.422Z,35.50
2018-07-31T14:38:02.058Z,35.60
2018-07-31T14:40:30.490Z,35.60
2018-07-31T14:42:58.928Z,35.60
2018-07-31T14:45:27.627Z,35.50
2018-07-31T14:47:56.113Z,35.40
2018-07-31T14:50:24.792Z,35.30
2018-07-31T14:52:53.512Z,34.90
2018-07-31T14:55:22.049Z,34.70
2018-07-31T14:57:50.421Z,34.70
2018-07-31T15:00:18.967Z,34.60
2018-07-31T15:02:47.429Z,34.60
2018-07-31T15:05:16.156Z,34.70
2018-07-31T15:07:44.589Z,34.60
2018-07-31T15:10:13.052Z,34.50
2018-07-31T15:12:41.690Z,34.50
2018-07-31T15:15:10.356Z,34.50
2018-07-31T15:17:38.762Z,34.60
2018-07-31T15:20:07.181Z,34.60
2018-07-31T15:25:04.797Z,34.70
2018-07-31T15:27:33.206Z,34.70
2018-07-31T15:30:01.826Z,34.70
2018-07-31T15:32:30.229Z,34.70
2018-07-31T15:34:58.631Z,34.60
2018-07-31T15:37:27.309Z,34.50
2018-07-31T15:39:55.784Z,34.40
2018-07-31T15:42:24.162Z,34.50
2018-07-31T15:44:52.781Z,34.50
2018-07-31T15:47:21.200Z,34.50
2018-07-31T15:49:49.679Z,34.30
2018-07-31T15:52:19.323Z,34.10
2018-07-31T15:54:47.788Z,34.00
2018-07-31T15:57:16.333Z,33.90
2018-07-31T15:59:45.111Z,34.00
2018-07-31T16:02:13.508Z,34.00
2018-07-31T16:04:41.897Z,34.20
2018-07-31T16:07:10.505Z,34.20
2018-07-31T16:09:38.893Z,34.10
2018-07-31T16:12:07.325Z,34.10
2018-07-31T16:14:36.053Z,34.10
2018-07-31T16:17:04.522Z,34.00
2018-07-31T16:19:32.997Z,34.00
2018-07-31T16:22:01.630Z,33.90
2018-07-31T16:24:30.078Z,33.80
2018-07-31T16:26:58.504Z,33.80
2018-07-31T16:29:27.101Z,33.70
2018-07-31T16:31:55.599Z,33.60
2018-07-31T16:34:24.050Z,33.60
2018-07-31T16:36:52.682Z,33.40
2018-07-31T16:39:21.113Z,33.30
2018-07-31T16:41:49.547Z,33.10
2018-07-31T16:44:18.113Z,32.80
2018-07-31T16:46:46.510Z,32.30
2018-07-31T16:49:14.885Z,32.00
2018-07-31T16:51:43.561Z,31.70
2018-07-31T16:54:12.017Z,31.40
2018-07-31T16:56:40.402Z,31.10
2018-07-31T16:59:09.035Z,30.90
2018-07-31T17:01:37.435Z,30.80
2018-07-31T17:04:05.843Z,30.60
2018-07-31T17:06:34.409Z,30.40
2018-07-31T17:09:02.897Z,30.20
2018-07-31T17:11:31.328Z,30.10
2018-07-31T17:13:59.977Z,30.10
2018-07-31T17:16:28.362Z,29.90
2018-07-31T17:18:57.635Z,29.80
2018-07-31T17:21:27.687Z,29.80
2018-07-31T17:23:57.259Z,29.70
2018-07-31T17:26:27.057Z,29.70
2018-07-31T17:28:55.577Z,29.60
2018-07-31T17:31:23.978Z,29.40
2018-07-31T17:33:53.305Z,29.30
2018-07-31T17:36:21.736Z,29.20
2018-07-31T17:38:50.221Z,29.10
2018-07-31T17:41:19.761Z,29.00
2018-07-31T17:43:48.199Z,28.90
2018-07-31T17:46:16.746Z,28.80
2018-07-31T17:48:45.450Z,28.80
2018-07-31T17:51:13.878Z,28.80
2018-07-31T17:53:42.307Z,28.80
2018-07-31T17:56:11.144Z,28.70
2018-07-31T17:58:39.830Z,28.70
2018-07-31T18:01:08.648Z,28.60
2018-07-31T18:03:37.564Z,28.50
2018-07-31T18:06:06.203Z,28.40
2018-07-31T18:08:34.637Z,28.30
2018-07-31T18:11:03.313Z,28.20
2018-07-31T18:13:32.110Z,28.10
2018-07-31T18:16:00.625Z,27.90
2018-07-31T18:18:29.287Z,27.90
2018-07-31T18:20:57.721Z,27.90
2018-07-31T18:23:26.179Z,27.90
2018-07-31T18:25:55.261Z,27.80
2018-07-31T18:28:23.788Z,27.70
2018-07-31T18:30:52.638Z,27.70
2018-07-31T18:33:21.070Z,27.60
2018-07-31T18:35:49.858Z,27.60
2018-07-31T18:38:18.490Z,27.50
2018-07-31T18:40:46.862Z,27.40
2018-07-31T18:43:15.565Z,27.30
2018-07-31T18:45:45.876Z,27.20
2018-07-31T18:48:14.478Z,27.10
2018-07-31T18:50:43.007Z,27.00
2018-07-31T18:53:11.728Z,26.90
2018-07-31T18:55:40.227Z,26.80
2018-07-31T18:58:08.629Z,26.70
2018-07-31T19:00:37.550Z,26.70
2018-07-31T19:03:06.059Z,26.70
2018-07-31T19:05:35.175Z,26.70
2018-07-31T19:08:03.992Z,26.60
2018-07-31T19:10:33.183Z,26.50
2018-07-31T19:13:01.725Z,26.50
2018-07-31T19:15:30.403Z,26.50
2018-07-31T19:17:58.908Z,26.40
2018-07-31T19:20:27.445Z,26.40
2018-07-31T19:22:56.078Z,26.30
2018-07-31T19:25:24.550Z,26.30
2018-07-31T19:27:53.032Z,26.20
2018-07-31T19:32:50.160Z,26.10
2018-07-31T19:35:18.613Z,26.10
2018-07-31T19:37:47.349Z,26.00
2018-07-31T19:40:15.814Z,26.00
2018-07-31T19:42:44.215Z,25.90
2018-07-31T19:45:13.059Z,25.90
2018-07-31T19:47:41.657Z,25.80
2018-07-31T19:50:10.178Z,25.80
2018-07-31T19:52:38.929Z,25.80
2018-07-31T19:55:07.487Z,25.70
2018-07-31T19:57:36.008Z,25.70
2018-07-31T20:00:05.149Z,25.60
2018-07-31T20:02:33.517Z,25.50
2018-07-31T20:05:01.910Z,25.50
2018-07-31T20:07:30.595Z,25.50
2018-07-31T20:09:58.989Z,25.40
2018-07-31T20:12:27.393Z,25.40
2018-07-31T20:14:56.075Z,25.40
2018-07-31T20:17:24.458Z,25.30
2018-07-31T20:19:52.932Z,25.30
2018-07-31T20:22:21.549Z,25.20
2018-07-31T20:27:18.815Z,25.10
2018-07-31T20:29:47.460Z,25.10
2018-07-31T20:32:15.886Z,25.00
2018-07-31T20:37:12.589Z,24.90
2018-07-31T20:39:41.054Z,24.80
2018-07-31T20:42:09.487Z,24.80
2018-07-31T20:44:38.039Z,24.80
2018-07-31T20:47:06.501Z,24.70
2018-07-31T20:49:34.890Z,24.70
2018-07-31T20:52:03.530Z,24.60
2018-07-31T20:54:32.029Z,24.60
2018-07-31T20:57:00.430Z,24.50
2018-07-31T20:59:29.081Z,24.50
2018-07-31T21:01:57.498Z,24.50
2018-07-31T21:04:26.115Z,24.40
2018-07-31T21:06:54.746Z,24.40
2018-07-31T21:09:23.175Z,24.40
2018-07-31T21:11:52.204Z,24.40
2018-07-31T21:14:21.162Z,24.30
2018-07-31T21:16:49.566Z,24.30
2018-07-31T21:19:17.962Z,24.20
2018-07-31T21:21:46.617Z,24.20
2018-07-31T21:24:15.047Z,24.20
2018-07-31T21:26:43.481Z,24.10
2018-07-31T21:29:12.155Z,24.00
2018-07-31T21:31:40.589Z,24.00
2018-07-31T21:34:09.055Z,24.00
2018-07-31T21:36:37.693Z,23.90
2018-07-31T21:39:08.729Z,23.90
2018-07-31T21:41:37.370Z,23.90
2018-07-31T21:44:05.813Z,23.90
2018-07-31T21:46:34.347Z,23.90
2018-07-31T21:49:02.986Z,23.90
2018-07-31T21:51:31.489Z,23.90
2018-07-31T21:53:59.921Z,23.90
2018-07-31T21:56:28.598Z,23.90
2018-07-31T21:58:57.036Z,24.00
2018-07-31T22:03:53.777Z,23.90
2018-07-31T22:06:22.211Z,23.80
2018-07-31T22:08:51.177Z,23.80
2018-07-31T22:11:19.661Z,23.80
2018-07-31T22:13:48.397Z,23.80
2018-07-31T22:16:16.786Z,23.70
2018-07-31T22:18:45.172Z,23.70
2018-07-31T22:21:13.820Z,23.70
2018-07-31T22:23:42.213Z,23.60
2018-07-31T22:26:10.655Z,23.50
2018-07-31T22:28:39.481Z,23.40
2018-07-31T22:31:07.945Z,23.40
2018-07-31T22:33:36.329Z,23.40
2018-07-31T22:36:04.995Z,23.30
2018-07-31T22:38:33.411Z,23.40
2018-07-31T22:41:01.847Z,23.40
2018-07-31T22:43:30.515Z,23.40
2018-07-31T22:48:26.983Z,23.30
2018-07-31T22:50:55.657Z,23.30
2018-07-31T22:53:24.065Z,23.30
2018-07-31T22:55:52.498Z,23.30
2018-07-31T23:00:49.811Z,23.10
2018-07-31T23:03:18.348Z,23.10
2018-07-31T23:05:46.741Z,23.10
2018-07-31T23:08:15.294Z,23.10
2018-07-31T23:10:43.709Z,23.10
2018-07-31T23:13:12.142Z,23.10
2018-07-31T23:15:40.873Z,23.10
2018-07-31T23:18:09.289Z,23.10
2018-07-31T23:20:37.757Z,23.10
2018-07-31T23:23:06.465Z,23.10
2018-07-31T23:25:34.867Z,23.10
2018-07-31T23:28:03.309Z,23.10
2018-07-31T23:30:31.892Z,23.00
2018-07-31T23:33:00.301Z,23.00
2018-07-31T23:35:28.705Z,23.00
2018-07-31T23:37:57.243Z,22.90
2018-07-31T23:40:25.770Z,22.90
2018-07-31T23:42:54.161Z,22.90
2018-07-31T23:45:22.809Z,22.90
2018-07-31T23:47:51.442Z,22.80
2018-07-31T23:50:19.781Z,22.80
2018-07-31T23:52:48.382Z,22.80
2018-07-31T23:55:16.746Z,22.80
2018-07-31T23:57:45.147Z,22.80
